Weather at Strängnäs Air Base [CLOSED]

Public forecast

Using degrees Celsius for public forecast. Weather courtesy of forecast.io.

Closest aviation weather report (METAR) to Strängnäs Air Base

Closest report is Stockholm Västerås Airport, 22.0 nm (40.8 km) NW. Retrieved 2022/01/19 21:50 UTC (23 minutes ago):

ESOW 192150Z AUTO 36019KT 1300 R01/P2000N R19/P2000N -SN VV010 00/M01 Q0987

Closest aviation forecast (TAF) to Strängnäs Air Base

Forecast is more than 12 hours old.

Closest forecast is Stockholm Västerås Airport, 22.0 nm (40.8 km) NW. Retrieved 2021-06-01 03:36 UTC (8 months ago):

TAF TAF ESOW 190230Z 1903/1915 27005KT CAVOK